Etusivu
METAR-TAF:

METAR-TAF

Lentoasemat :

Peking, Kiina

Pekingin kansainvälinen lentoasema

Leveyspiiri: 39-56N, Pituuspiiri: 116-17E, korkeus merenpinnasta: 55 m

Tämänhetkinen sää

Tämä raportti tehtiin 31 minuuttia sitten, kello 09.30 UTC
Tuuli 2 kn idästä
Lämpötila 10°C
Kosteus 87%
Ilmanpaine 1023 hPa
Näkyvyys 10 km tai enemmän
ei pilviä alle 1500 m:ssä eikä cumulonimbus-pilviä

METAR: ZBAA 220930Z 10001MPS CAVOK 10/08 Q1023 NOSIG

Aika: 18:01 (10:01 UTC)

Sääennuste

Tämä raportti tehtiin 6 tuntia ja 31 minuuttia sitten, kello 03.30 UTC
Ennuste voimassa 22. päivästä klo 06 UTC - 23. päivään klo 06 UTC
Tuuli 8 kn etelästä/kaakosta
Näkyvyys: 5000 m
utua

TAF: ZBAA 220330Z 2206/2306 16004MPS 5000 BR NSC TX14/2207Z TN08/2221Z

Säähavainnot ja -ennusteet yli 4000 lentoasemalta (METAR- ja TAF-raportit).

Käytössä olevat sääasemat on merkitty karttaan keltaisilla ja punaisilla pisteillä.

Aseta hiiri pisteen päälle nähdäksesi sääaseman nimen.

Klikkaa sitten nähdäksesi säähavainnot ja -ennusteet.

Kartan vaihtaminen: klikkaa mustalla rastilla varustettuja vihreitä pisteitä, niin voit zoomata sisään; viivalla varustettua vihreää pistettä, niin voit zoomata ulos tai vihreitä nuolia, niin pääset viereisille kartoille.


METAR-TAF: